Time;durP1;ratioP1;P1;durP2;ratioP2;P2;SDS_P1;SDS_P2;PMS_P1;PMS_P2;Temp;Humidity;BMP_temperature;BMP_pressure;BME280_temperature;BME280_humidity;BME280_pressure;Samples;Min_cycle;Max_cycle;Signal;HPM_P1;HPM_P2
2023/05/14 00:02:08;;;;;;;8.23;4.33;;;;;;;15.13;85.72;101920.28;5110683;28;19908;-36
2023/05/14 00:04:33;;;;;;;6.55;4.72;;;;;;;15.07;87.77;101926.66;5110640;28;20262;-36
2023/05/14 00:06:59;;;;;;;6.45;4.68;;;;;;;15.11;87.40;101921.56;5111151;28;20032;-36
2023/05/14 00:09:25;;;;;;;;;;;;;;;15.20;84.59;101928.34;5111535;28;20059;-36
2023/05/14 00:11:50;;;;;;;5.93;4.78;;;;;;;15.01;88.21;101930.31;5101952;28;20011;-36
2023/05/14 00:14:16;;;;;;;;;;;;;;;15.10;85.29;101931.63;5097014;28;20383;-36
2023/05/14 00:16:41;;;;;;;5.65;4.65;;;;;;;14.97;87.88;101918.22;5096226;28;19908;-36
2023/05/14 00:19:07;;;;;;;;;;;;;;;15.08;85.27;101911.13;5096803;28;20024;-36
2023/05/14 00:21:32;;;;;;;6.90;4.50;;;;;;;15.01;88.06;101919.41;5097230;28;19933;-36
2023/05/14 00:23:57;;;;;;;5.95;5.25;;;;;;;14.88;88.58;101912.31;5096848;28;20157;-36
2023/05/14 00:26:23;;;;;;;;;;;;;;;15.02;85.60;101914.81;5096480;28;20035;-36
2023/05/14 00:28:48;;;;;;;6.83;4.90;;;;;;;14.86;89.91;101925.31;5096201;28;19908;-37
2023/05/14 00:31:13;;;;;;;6.28;4.93;;;;;;;14.83;89.69;101917.59;5096533;28;20258;-37
2023/05/14 00:33:39;;;;;;;;;;;;;;;14.93;86.73;101911.56;5096350;28;20032;-37
2023/05/14 00:36:04;;;;;;;7.75;4.80;;;;;;;14.70;93.40;101906.09;5096171;28;20244;-37
2023/05/14 00:38:29;;;;;;;6.00;5.22;;;;;;;14.60;93.09;101909.38;5096093;28;20031;-36
2023/05/14 00:40:55;;;;;;;6.18;5.57;;;;;;;14.51;94.19;101905.31;5095820;28;20368;-37
2023/05/14 00:43:21;;;;;;;;;;;;;;;14.68;90.04;101898.16;5096404;28;20109;-36
2023/05/14 00:45:49;;;;;;;5.93;5.18;;;;;;;14.28;93.73;101890.53;5096306;28;19949;-36
2023/05/14 00:48:15;;;;;;;6.07;5.38;;;;;;;14.34;94.36;101894.22;5095941;28;20073;-36
2023/05/14 00:50:41;;;;;;;;;;;;;;;14.52;90.67;101899.66;5097192;28;20359;-36
2023/05/14 00:53:09;;;;;;;8.10;5.70;;;;;;;14.30;94.83;101888.44;5096364;28;19904;-36
2023/05/14 00:55:39;;;;;;;6.45;5.85;;;;;;;14.19;97.39;101891.91;5095535;28;20483;-36
2023/05/14 00:58:08;;;;;;;8.13;5.65;;;;;;;14.17;96.23;101891.31;5096271;28;20111;-36
2023/05/14 01:00:34;;;;;;;8.23;5.80;;;;;;;14.09;97.04;101881.56;5095578;28;20050;-36
2023/05/14 01:03:00;;;;;;;;;;;;;;;14.31;93.70;101879.19;5096621;28;20095;-36
2023/05/14 01:05:32;;;;;;;8.35;7.28;;;;;;;14.15;97.40;101890.69;5095617;28;19965;-36
2023/05/14 01:08:08;;;;;;;6.88;6.18;;;;;;;14.10;97.44;101893.28;5095565;28;20024;-36
2023/05/14 01:10:59;;;;;;;7.07;6.35;;;;;;;14.10;96.75;101893.28;5095515;28;20063;-36
2023/05/14 01:13:52;;;;;;;7.05;6.35;;;;;;;14.05;95.94;101890.41;5095566;28;20444;-36
2023/05/14 01:16:18;;;;;;;9.25;7.35;;;;;;;13.80;97.93;101895.94;5095935;28;20028;-36
2023/05/14 01:18:45;;;;;;;;;;;;;;;13.98;94.70;101897.84;5096394;28;20031;-36
2023/05/14 01:21:23;;;;;;;7.22;6.53;;;;;;;13.71;100.00;101886.44;5095209;28;19930;-36
2023/05/14 01:23:49;;;;;;;7.57;6.57;;;;;;;13.72;100.00;101882.69;5094275;28;20035;-36
2023/05/14 01:26:14;;;;;;;;;;;;;;;13.84;96.54;101878.97;5096235;28;20021;-36
2023/05/14 01:28:40;;;;;;;8.13;7.05;;;;;;;13.61;100.00;101876.09;5095084;28;20247;-36
2023/05/14 01:31:18;;;;;;;8.40;7.32;;;;;;;13.50;100.00;101866.81;5094815;28;20034;-36
2023/05/14 01:33:47;;;;;;;8.38;7.57;;;;;;;13.47;100.00;101878.13;5095882;28;20048;-36
2023/05/14 01:36:12;;;;;;;8.93;7.47;;;;;;;13.55;100.00;101880.53;5095021;28;20035;-36
2023/05/14 01:38:38;;;;;;;;;;;;;;;13.69;98.16;101880.41;5095346;28;20028;-36
2023/05/14 01:41:04;;;;;;;7.45;6.68;;;;;;;13.47;100.00;101872.69;5094493;28;19908;-36
2023/05/14 01:43:30;;;;;;;9.48;7.38;;;;;;;13.37;100.00;101877.78;5094616;28;20061;-36
2023/05/14 01:45:55;;;;;;;;;;;;;;;13.58;98.71;101884.72;5094969;28;20470;-36
2023/05/14 01:48:21;;;;;;;8.20;7.40;;;;;;;13.38;100.00;101874.88;5095271;28;19904;-36
2023/05/14 01:50:46;;;;;;;8.32;7.22;;;;;;;13.32;100.00;101877.63;5095312;28;20262;-36
2023/05/14 01:53:12;;;;;;;8.10;7.30;;;;;;;13.17;100.00;101869.81;5095210;28;20024;-36
2023/05/14 01:55:37;;;;;;;7.82;7.13;;;;;;;13.23;100.00;101870.84;5094386;28;20024;-36
2023/05/14 01:58:02;;;;;;;8.55;7.72;;;;;;;13.21;100.00;101881.06;5094568;28;20024;-36
2023/05/14 02:00:28;;;;;;;8.88;7.82;;;;;;;13.19;100.00;101877.75;5095217;28;20148;-36
2023/05/14 02:02:53;;;;;;;11.60;7.90;;;;;;;13.21;100.00;101878.34;5094144;28;20427;-36
2023/05/14 02:05:19;;;;;;;;;;;;;;;13.36;100.00;101868.81;5095512;28;20020;-36
2023/05/14 02:07:44;;;;;;;8.13;7.30;;;;;;;13.12;100.00;101861.50;5094378;28;19908;-36
2023/05/14 02:10:10;;;;;;;9.90;7.63;;;;;;;13.19;100.00;101867.72;5094949;28;20088;-36
2023/05/14 02:12:35;;;;;;;8.80;7.90;;;;;;;13.13;100.00;101860.47;5094300;28;20337;-36
2023/05/14 02:15:02;;;;;;;9.87;8.07;;;;;;;13.13;100.00;101882.19;5095095;28;20024;-36
2023/05/14 02:17:28;;;;;;;8.65;7.60;;;;;;;13.13;100.00;101874.06;5094269;28;20742;-36
2023/05/14 02:19:53;;;;;;;;;;;;;;;13.31;100.00;101867.84;5094461;28;20027;-36
2023/05/14 02:22:18;;;;;;;8.55;7.75;;;;;;;13.20;100.00;101868.53;5094134;28;19911;-36
2023/05/14 02:24:44;;;;;;;10.30;8.30;;;;;;;13.08;100.00;101863.03;5094135;28;20059;-36
2023/05/14 02:27:11;;;;;;;8.75;7.85;;;;;;;13.12;100.00;101864.22;5094107;28;20028;-36
2023/05/14 02:29:36;;;;;;;9.48;8.52;;;;;;;12.91;100.00;101861.91;5094808;28;20035;-36
2023/05/14 02:32:02;;;;;;;;;;;;;;;13.14;100.00;101857.53;5094768;28;20478;-36
2023/05/14 02:34:27;;;;;;;9.38;8.40;;;;;;;13.03;100.00;101857.41;5093999;28;19915;-36
2023/05/14 02:36:52;;;;;;;10.63;8.27;;;;;;;12.97;100.00;101856.41;5094251;28;20034;-36
2023/05/14 02:39:18;;;;;;;9.93;8.53;;;;;;;12.84;100.00;101851.94;5094111;28;20451;-36
2023/05/14 02:41:43;;;;;;;9.43;8.23;;;;;;;12.98;100.00;101863.53;5093974;28;20571;-36
2023/05/14 02:44:08;;;;;;;10.20;9.17;;;;;;;12.92;100.00;101858.97;5094397;28;20337;-36
2023/05/14 02:46:34;;;;;;;10.10;9.20;;;;;;;12.83;100.00;101855.72;5093557;28;20261;-36
2023/05/14 02:48:59;;;;;;;9.95;8.98;;;;;;;12.85;100.00;101863.63;5093802;28;20036;-36
2023/05/14 02:51:25;;;;;;;9.68;8.77;;;;;;;12.81;100.00;101863.25;5094110;28;20032;-36
2023/05/14 02:53:51;;;;;;;10.35;9.27;;;;;;;12.72;100.00;101850.16;5093728;28;20023;-36
2023/05/14 02:56:16;;;;;;;11.25;10.10;;;;;;;12.74;100.00;101867.06;5093750;28;20479;-36
2023/05/14 02:58:42;;;;;;;14.05;10.07;;;;;;;12.72;100.00;101864.56;5094270;28;20024;-36
2023/05/14 03:01:07;;;;;;;10.52;9.50;;;;;;;12.65;100.00;101857.53;5093577;28;20079;-36
2023/05/14 03:03:34;;;;;;;10.82;9.88;;;;;;;12.66;100.00;101867.31;5093340;28;20031;-36
2023/05/14 03:05:59;;;;;;;11.18;9.70;;;;;;;12.64;100.00;101859.41;5094192;28;20390;-36
2023/05/14 03:08:25;;;;;;;11.02;9.30;;;;;;;12.58;100.00;101855.66;5093934;28;20032;-36
2023/05/14 03:10:50;;;;;;;11.80;9.63;;;;;;;12.46;100.00;101849.31;5093881;28;20066;-36
2023/05/14 03:13:18;;;;;;;10.95;9.85;;;;;;;12.54;100.00;101848.19;5094099;28;20066;-36
2023/05/14 03:15:44;;;;;;;13.02;10.05;;;;;;;12.46;100.00;101843.06;5094406;28;20059;-36
2023/05/14 03:18:09;;;;;;;11.25;10.02;;;;;;;12.52;100.00;101848.41;5093487;28;20113;-36
2023/05/14 03:20:34;;;;;;;11.20;10.20;;;;;;;12.46;100.00;101856.63;5093121;28;20020;-36
2023/05/14 03:23:00;;;;;;;11.32;10.25;;;;;;;12.49;100.00;101854.31;5094025;28;20024;-36
2023/05/14 03:25:25;;;;;;;10.38;9.48;;;;;;;12.51;100.00;101845.94;5093175;28;20021;-36
2023/05/14 03:27:50;;;;;;;12.07;10.55;;;;;;;12.38;100.00;101847.66;5093111;28;20016;-36
2023/05/14 03:30:16;;;;;;;10.93;9.80;;;;;;;12.38;100.00;101842.25;5093481;28;20341;-36
2023/05/14 03:32:42;;;;;;;11.60;10.43;;;;;;;12.47;100.00;101840.13;5093347;28;20043;-36
2023/05/14 03:35:07;;;;;;;12.13;10.98;;;;;;;12.34;100.00;101841.03;5093447;28;20032;-36
2023/05/14 03:37:33;;;;;;;11.35;10.23;;;;;;;12.36;100.00;101840.81;5093368;28;20456;-36
2023/05/14 03:39:58;;;;;;;13.50;11.10;;;;;;;12.31;100.00;101837.94;5093547;28;20487;-36
2023/05/14 03:42:23;;;;;;;11.67;10.47;;;;;;;12.26;100.00;101843.19;5093331;28;20046;-36
2023/05/14 03:44:49;;;;;;;11.37;10.17;;;;;;;12.21;100.00;101841.13;5093320;28;20261;-36
2023/05/14 03:47:14;;;;;;;12.20;10.90;;;;;;;12.13;100.00;101835.13;5095671;28;20035;-36
2023/05/14 03:49:40;;;;;;;12.93;11.67;;;;;;;12.11;100.00;101838.06;5097029;28;20456;-36
2023/05/14 03:52:05;;;;;;;13.13;11.77;;;;;;;12.00;100.00;101833.28;5097011;28;20349;-36
2023/05/14 03:54:31;;;;;;;13.27;11.18;;;;;;;12.09;100.00;101834.72;5096930;28;20024;-36
2023/05/14 03:56:56;;;;;;;14.32;11.48;;;;;;;12.08;100.00;101835.75;5096961;28;20027;-36
2023/05/14 03:59:21;;;;;;;13.67;12.17;;;;;;;12.04;100.00;101845.38;5096686;28;20054;-36
2023/05/14 04:01:47;;;;;;;13.40;12.00;;;;;;;11.97;100.00;101841.88;5097457;28;20246;-36
2023/05/14 04:04:12;;;;;;;14.87;12.67;;;;;;;11.92;100.00;101831.69;5096455;28;20334;-36
2023/05/14 04:06:37;;;;;;;13.07;11.65;;;;;;;11.93;100.00;101836.03;5096845;28;20055;-36
2023/05/14 04:09:03;;;;;;;13.52;12.18;;;;;;;11.91;100.00;101840.88;5096672;28;20016;-36
2023/05/14 04:11:28;;;;;;;13.93;12.52;;;;;;;11.83;100.00;101838.38;5097248;28;20032;-36
2023/05/14 04:13:54;;;;;;;13.13;11.73;;;;;;;11.85;100.00;101847.94;5096275;28;20031;-36
2023/05/14 04:16:19;;;;;;;12.32;11.10;;;;;;;11.80;100.00;101839.59;5097375;28;20341;-36
2023/05/14 04:18:44;;;;;;;14.07;12.67;;;;;;;11.69;100.00;101834.88;5096535;28;20424;-36
2023/05/14 04:21:10;;;;;;;13.13;11.82;;;;;;;11.72;100.00;101830.91;5096999;28;20590;-36
2023/05/14 04:23:35;;;;;;;13.30;11.93;;;;;;;11.78;100.00;101835.47;5096655;28;20051;-36
2023/05/14 04:26:01;;;;;;;13.50;12.13;;;;;;;11.78;100.00;101832.75;5096940;28;20352;-36
2023/05/14 04:28:26;;;;;;;14.40;12.10;;;;;;;11.64;100.00;101831.97;5096298;28;20027;-36
2023/05/14 04:30:51;;;;;;;13.73;11.97;;;;;;;11.69;100.00;101831.31;5096340;28;20028;-36
2023/05/14 04:33:17;;;;;;;13.93;11.70;;;;;;;11.67;100.00;101836.13;5096215;28;20266;-36
2023/05/14 04:35:44;;;;;;;14.27;12.80;;;;;;;11.76;100.00;101832.13;5096562;28;20090;-36
2023/05/14 04:38:10;;;;;;;13.30;11.95;;;;;;;11.65;100.00;101843.63;5096154;28;20391;-36
2023/05/14 04:40:35;;;;;;;14.68;11.95;;;;;;;11.73;100.00;101832.56;5096182;28;20024;-36
2023/05/14 04:43:01;;;;;;;12.82;11.63;;;;;;;11.64;100.00;101839.25;5096317;28;20012;-36
2023/05/14 04:45:26;;;;;;;12.90;11.57;;;;;;;11.66;100.00;101837.16;5096342;28;20463;-36
2023/05/14 04:47:51;;;;;;;11.93;10.73;;;;;;;11.76;100.00;101835.69;5095979;28;20505;-36
2023/05/14 04:50:17;;;;;;;12.80;11.55;;;;;;;11.74;100.00;101834.22;5096256;28;20032;-36
2023/05/14 04:52:42;;;;;;;12.95;10.55;;;;;;;11.69;100.00;101829.44;5096130;28;20047;-36
2023/05/14 04:55:08;;;;;;;14.25;11.93;;;;;;;11.71;100.00;101837.34;5095867;28;20377;-36
2023/05/14 04:57:34;;;;;;;13.23;11.50;;;;;;;11.74;100.00;101839.63;5095473;28;20020;-36
2023/05/14 04:59:59;;;;;;;16.15;12.20;;;;;;;11.82;100.00;101842.97;5095680;28;20128;-36
2023/05/14 05:02:24;;;;;;;12.20;11.00;;;;;;;11.71;100.00;101834.63;5095745;28;20526;-36
2023/05/14 05:04:50;;;;;;;13.48;11.93;;;;;;;11.72;100.00;101839.03;5096285;28;20432;-36
2023/05/14 05:07:15;;;;;;;13.32;10.75;;;;;;;11.76;100.00;101842.94;5095863;28;20102;-36
2023/05/14 05:09:42;;;;;;;13.90;11.73;;;;;;;11.76;100.00;101832.13;5095572;28;20481;-36
2023/05/14 05:12:07;;;;;;;11.63;10.30;;;;;;;11.93;100.00;101833.34;5095777;28;20367;-36
2023/05/14 05:14:33;;;;;;;12.07;10.88;;;;;;;12.00;100.00;101836.84;5095201;28;20020;-36
2023/05/14 05:16:58;;;;;;;12.87;10.50;;;;;;;12.07;100.00;101842.25;5095420;28;20047;-36
2023/05/14 05:19:23;;;;;;;11.95;10.75;;;;;;;12.05;100.00;101826.19;5095002;28;20028;-36
2023/05/14 05:21:50;;;;;;;13.95;10.68;;;;;;;12.21;100.00;101843.84;5095361;28;20032;-36
2023/05/14 05:24:15;;;;;;;12.95;11.20;;;;;;;12.27;100.00;101844.84;5095207;28;20066;-36
2023/05/14 05:26:40;;;;;;;15.98;10.70;;;;;;;12.26;100.00;101837.75;5095557;28;20020;-36
2023/05/14 05:29:06;;;;;;;12.75;11.00;;;;;;;12.24;100.00;101851.50;5095183;28;20440;-36
2023/05/14 05:31:31;;;;;;;12.50;10.85;;;;;;;12.20;100.00;101853.03;5095419;28;20020;-36
2023/05/14 05:34:00;;;;;;;12.73;10.80;;;;;;;12.25;100.00;101847.78;5095068;28;20517;-36
2023/05/14 05:36:26;;;;;;;12.63;10.65;;;;;;;12.26;100.00;101840.47;5095890;28;20363;-36
2023/05/14 05:38:51;;;;;;;12.27;11.07;;;;;;;12.37;100.00;101842.47;5094932;28;20016;-36
2023/05/14 05:41:17;;;;;;;11.98;10.57;;;;;;;12.48;100.00;101846.38;5095724;28;20028;-36
2023/05/14 05:43:42;;;;;;;14.35;11.07;;;;;;;12.46;100.00;101849.31;5094666;28;20043;-36
2023/05/14 05:46:08;;;;;;;12.45;10.68;;;;;;;12.61;100.00;101852.53;5095123;28;20024;-36
2023/05/14 05:48:33;;;;;;;12.30;10.88;;;;;;;12.60;100.00;101850.06;5094790;28;20044;-36
2023/05/14 05:50:59;;;;;;;12.03;10.80;;;;;;;12.56;100.00;101865.09;5095308;28;20356;-36
2023/05/14 05:53:24;;;;;;;10.70;9.77;;;;;;;12.59;100.00;101856.50;5094956;28;20095;-36
2023/05/14 05:55:50;;;;;;;12.73;10.13;;;;;;;12.65;100.00;101858.38;5094377;28;20036;-36
2023/05/14 05:58:16;;;;;;;11.57;10.48;;;;;;;12.57;100.00;101862.16;5094859;28;20149;-36
2023/05/14 06:00:42;;;;;;;12.00;10.52;;;;;;;12.62;100.00;101859.63;5094995;28;20052;-36
2023/05/14 06:03:07;;;;;;;12.25;11.05;;;;;;;12.54;100.00;101862.63;5093977;28;20016;-36
2023/05/14 06:05:32;;;;;;;13.88;11.13;;;;;;;12.65;100.00;101866.50;5094758;28;20020;-36
2023/05/14 06:07:58;;;;;;;12.27;10.48;;;;;;;12.69;100.00;101869.59;5094690;28;20053;-36
2023/05/14 06:10:23;;;;;;;11.60;10.38;;;;;;;12.94;100.00;101869.63;5093632;28;20114;-36
2023/05/14 06:12:48;;;;;;;12.05;10.80;;;;;;;13.05;100.00;101868.91;5094315;28;20055;-36
2023/05/14 06:15:14;;;;;;;11.73;10.32;;;;;;;13.16;100.00;101851.84;5094590;28;20464;-36
2023/05/14 06:17:40;;;;;;;11.13;10.02;;;;;;;13.23;100.00;101862.72;5094262;28;20094;-36
2023/05/14 06:20:06;;;;;;;11.45;10.35;;;;;;;13.32;100.00;101869.50;5094159;28;20024;-36
2023/05/14 06:22:32;;;;;;;12.55;10.77;;;;;;;13.33;100.00;101868.47;5094733;28;20028;-36
2023/05/14 06:24:58;;;;;;;;;;;;;;;13.60;100.00;101869.81;5076288;28;20054;-36
2023/05/14 06:27:23;;;;;;;12.63;10.48;;;;;;;13.56;100.00;101870.50;5094207;28;19904;-36
2023/05/14 06:29:48;;;;;;;12.93;10.05;;;;;;;13.71;100.00;101870.13;5094077;28;20027;-36
2023/05/14 06:32:14;;;;;;;11.27;10.18;;;;;;;13.78;100.00;101871.72;5094585;28;20024;-36
2023/05/14 06:34:41;;;;;;;12.55;10.57;;;;;;;13.82;100.00;101881.09;5094025;28;20509;-36
2023/05/14 06:37:08;;;;;;;11.57;10.40;;;;;;;13.92;100.00;101880.53;5094160;28;20486;-36
2023/05/14 06:39:34;;;;;;;11.70;9.95;;;;;;;14.03;100.00;101873.50;5093770;28;20110;-36
2023/05/14 06:41:59;;;;;;;11.45;10.23;;;;;;;14.11;100.00;101874.03;5093728;28;20030;-36
2023/05/14 06:44:25;;;;;;;;;;;;;;;14.32;100.00;101869.13;5094652;28;20024;-36
2023/05/14 06:46:50;;;;;;;13.35;10.18;;;;;;;14.32;100.00;101874.59;5094144;28;19930;-36
2023/05/14 06:49:16;;;;;;;12.73;10.27;;;;;;;14.22;100.00;101866.97;5093565;28;20483;-36
2023/05/14 06:51:41;;;;;;;;;;;;;;;14.37;100.00;101872.00;5094533;28;20353;-36
2023/05/14 06:54:06;;;;;;;10.57;9.48;;;;;;;14.32;100.00;101863.69;5094012;28;19903;-36
2023/05/14 06:56:33;;;;;;;11.95;10.40;;;;;;;14.36;100.00;101846.69;5093562;28;20021;-36
2023/05/14 06:58:59;;;;;;;11.00;9.90;;;;;;;14.56;100.00;101870.91;5093932;28;20032;-37
2023/05/14 07:01:24;;;;;;;;;;;;;;;14.75;100.00;101863.50;5094762;28;20090;-36
2023/05/14 07:03:49;;;;;;;9.47;8.53;;;;;;;14.68;100.00;101849.97;5094183;28;19908;-36
2023/05/14 07:06:15;;;;;;;12.05;9.73;;;;;;;14.77;100.00;101864.09;5094207;28;20254;-36
2023/05/14 07:08:40;;;;;;;12.27;10.27;;;;;;;14.56;100.00;101860.03;5094120;28;20093;-36
2023/05/14 07:11:05;;;;;;;;;;;;;;;14.84;100.00;101870.25;5093736;28;20020;-36
2023/05/14 07:13:31;;;;;;;10.40;9.37;;;;;;;14.77;100.00;101865.97;5093505;28;19912;-36
2023/05/14 07:15:56;;;;;;;10.30;9.30;;;;;;;14.86;100.00;101861.84;5093590;28;20257;-36
2023/05/14 07:18:22;;;;;;;11.02;9.75;;;;;;;14.85;100.00;101862.91;5093813;28;20384;-36
2023/05/14 07:20:48;;;;;;;9.88;8.98;;;;;;;14.95;100.00;101868.63;5093714;28;20050;-37
2023/05/14 07:23:13;;;;;;;;;;;;;;;15.16;100.00;101869.94;5097843;28;20065;-37
2023/05/14 07:25:38;;;;;;;10.07;9.18;;;;;;;15.04;100.00;101863.66;5097875;28;19977;-37
2023/05/14 07:28:04;;;;;;;;;;;;;;;15.25;100.00;101868.50;5097642;28;20044;-37
2023/05/14 07:30:29;;;;;;;14.20;10.10;;;;;;;15.25;100.00;101867.69;5097717;28;20244;-37
2023/05/14 07:32:54;;;;;;;12.30;9.75;;;;;;;15.33;100.00;101859.16;5097388;28;20024;-37
2023/05/14 07:35:20;;;;;;;;;;;;;;;15.55;100.00;101867.53;5098069;28;20337;-37
2023/05/14 07:37:45;;;;;;;11.32;10.10;;;;;;;15.34;100.00;101866.25;5097477;28;19949;-37
2023/05/14 07:40:11;;;;;;;;;;;;;;;15.49;100.00;101863.88;5098441;28;20050;-37
2023/05/14 07:42:36;;;;;;;11.20;9.48;;;;;;;15.41;100.00;101856.06;5096856;28;19947;-37
2023/05/14 07:45:02;;;;;;;;;;;;;;;15.58;100.00;101864.34;5097923;28;20103;-37
2023/05/14 07:47:28;;;;;;;9.80;8.90;;;;;;;15.48;99.96;101861.41;5097483;28;20344;-37
2023/05/14 07:49:55;;;;;;;10.90;8.77;;;;;;;15.59;100.00;101858.63;5097096;28;20028;-37
2023/05/14 07:52:20;;;;;;;9.77;8.77;;;;;;;15.57;99.42;101855.34;5097891;28;20020;-37
2023/05/14 07:54:45;;;;;;;;;;;;;;;15.69;99.17;101861.63;5098521;28;20027;-37
2023/05/14 07:57:11;;;;;;;10.83;9.73;;;;;;;15.43;99.54;101854.75;5096960;28;19962;-37
2023/05/14 07:59:36;;;;;;;10.43;9.30;;;;;;;15.42;99.15;101852.25;5096714;28;20294;-37
2023/05/14 08:02:01;;;;;;;;;;;;;;;15.64;99.44;101857.97;5097618;28;20046;-37
2023/05/14 08:04:26;;;;;;;10.63;8.97;;;;;;;15.58;97.25;101851.53;5078686;28;19904;-37
2023/05/14 08:06:52;;;;;;;9.30;8.38;;;;;;;15.65;97.18;101852.25;5096727;28;20715;-37
2023/05/14 08:09:17;;;;;;;;;;;;;;;15.77;98.53;101859.59;5097676;28;20433;-37
2023/05/14 08:11:42;;;;;;;9.32;7.55;;;;;;;15.75;96.71;101861.72;5096720;28;19964;-37
2023/05/14 08:14:08;;;;;;;;;;;;;;;15.75;95.08;101856.25;5097035;28;20188;-37
2023/05/14 08:16:33;;;;;;;9.87;8.27;;;;;;;15.57;96.22;101859.97;5096713;28;20328;-38
2023/05/14 08:18:58;;;;;;;9.30;8.30;;;;;;;15.56;96.71;101859.09;5096278;28;20761;-37
2023/05/14 08:21:23;;;;;;;;;;;;;;;15.77;97.48;101860.41;5096620;28;20024;-37
2023/05/14 08:23:49;;;;;;;8.47;7.57;;;;;;;15.75;96.02;101859.81;5096152;28;19914;-37
2023/05/14 08:26:15;;;;;;;9.60;8.70;;;;;;;15.70;97.21;101860.53;5096428;28;20289;-37
2023/05/14 08:28:40;;;;;;;;;;;;;;;15.91;96.70;101850.06;5096519;28;20059;-37
2023/05/14 08:31:05;;;;;;;11.77;8.77;;;;;;;15.77;94.48;101849.50;5096106;28;19908;-37
2023/05/14 08:33:30;;;;;;;11.27;8.07;;;;;;;16.07;94.95;101846.56;5095836;28;20268;-37
2023/05/14 08:35:59;;;;;;;;;;;;;;;16.28;94.91;101855.13;5096994;28;20093;-38
2023/05/14 08:38:24;;;;;;;12.68;7.70;;;;;;;16.18;93.02;101845.69;5096502;28;20247;-37
2023/05/14 08:40:59;;;;;;;10.02;7.88;;;;;;;16.56;95.05;101841.47;5096375;28;20027;-38
2023/05/14 08:43:29;;;;;;;9.98;7.50;;;;;;;16.66;92.56;101843.53;5096295;28;20027;-38
2023/05/14 08:45:59;;;;;;;8.73;7.57;;;;;;;16.76;92.49;101845.63;5096069;28;20028;-38
2023/05/14 08:48:30;;;;;;;10.55;7.10;;;;;;;16.80;89.54;101846.81;5096262;28;20413;-37
2023/05/14 08:50:56;;;;;;;8.95;6.75;;;;;;;16.79;89.59;101831.47;5095672;28;20456;-37
2023/05/14 08:53:22;;;;;;;;;;;;;;;16.99;91.46;101835.38;5096353;28;20031;-37
2023/05/14 08:55:50;;;;;;;7.55;6.47;;;;;;;17.13;86.15;101840.47;5095828;28;19904;-38
2023/05/14 08:58:16;;;;;;;7.60;6.22;;;;;;;17.09;83.30;101820.22;5095828;28;20027;-37
2023/05/14 09:00:41;;;;;;;;;;;;;;;17.27;85.21;101830.00;5096134;28;20044;-37
2023/05/14 09:03:07;;;;;;;8.68;6.20;;;;;;;17.23;87.37;101825.06;5096232;28;19957;-37
2023/05/14 09:05:32;;;;;;;;;;;;;;;17.44;87.52;101828.91;5097283;28;20020;-38
2023/05/14 09:07:58;;;;;;;9.25;6.07;;;;;;;17.51;83.39;101828.72;5095670;28;20069;-37
2023/05/14 09:10:23;;;;;;;;;;;;;;;17.83;86.69;101822.59;5096321;28;20027;-38
2023/05/14 09:12:49;;;;;;;13.10;6.35;;;;;;;17.90;82.48;101815.00;5095485;28;20356;-37
2023/05/14 09:15:14;;;;;;;;;;;;;;;18.14;85.22;101818.25;5095913;28;20020;-38
2023/05/14 09:17:40;;;;;;;8.32;5.78;;;;;;;18.23;83.47;101801.13;5095662;28;19961;-38
2023/05/14 09:20:05;;;;;;;;;;;;;;;18.51;85.26;101807.41;5096351;28;20336;-38
2023/05/14 09:22:31;;;;;;;7.75;5.72;;;;;;;18.51;79.30;101801.94;5094966;28;19953;-37
2023/05/14 09:25:04;;;;;;;6.38;5.53;;;;;;;18.62;79.85;101797.34;5095576;28;20394;-38
2023/05/14 09:27:31;;;;;;;8.02;5.60;;;;;;;18.77;80.40;101803.81;5095215;28;20055;-38
2023/05/14 09:30:07;;;;;;;7.45;5.72;;;;;;;18.76;80.67;101787.63;5095140;28;20027;-38
2023/05/14 09:32:41;;;;;;;7.80;5.43;;;;;;;18.86;76.31;101797.84;5095407;28;20444;-37
2023/05/14 09:35:24;;;;;;;10.20;5.55;;;;;;;18.97;78.10;101807.78;5094811;28;20026;-37
2023/05/14 09:37:52;;;;;;;7.65;5.25;;;;;;;18.98;76.01;101801.19;5094777;28;20016;-37
2023/05/14 09:40:19;;;;;;;8.50;5.65;;;;;;;18.92;74.65;101796.78;5095672;28;20023;-38
2023/05/14 09:42:45;;;;;;;5.82;5.05;;;;;;;18.97;75.33;101780.38;5095582;28;20045;-38
2023/05/14 09:45:11;;;;;;;;;;;;;;;19.29;76.37;101796.75;5094803;28;20028;-38
2023/05/14 09:47:38;;;;;;;7.47;5.22;;;;;;;19.25;75.79;101795.63;5094894;28;19904;-38
2023/05/14 09:50:05;;;;;;;6.60;5.28;;;;;;;19.25;76.34;101787.38;5095041;28;20028;-38
2023/05/14 09:52:30;;;;;;;7.93;5.10;;;;;;;19.47;77.15;101781.72;5095108;28;20027;-38
2023/05/14 09:54:55;;;;;;;;;;;;;;;19.66;76.92;101790.34;5095400;28;20020;-38
2023/05/14 09:57:21;;;;;;;5.30;4.10;;;;;;;19.49;70.16;101769.41;5094945;28;19931;-38
2023/05/14 09:59:46;;;;;;;6.47;4.57;;;;;;;19.62;70.85;101784.59;5094296;28;20460;-38
2023/05/14 10:02:24;;;;;;;6.70;4.57;;;;;;;19.62;72.64;101780.97;5095118;28;20153;-37
2023/05/14 10:04:51;;;;;;;6.05;4.43;;;;;;;19.76;71.70;101779.38;5094222;28;20482;-38
2023/05/14 10:07:22;;;;;;;6.35;4.65;;;;;;;19.82;69.86;101781.06;5095373;28;20035;-38
2023/05/14 10:09:47;;;;;;;5.65;4.53;;;;;;;19.86;68.41;101784.09;5094794;28;20103;-38
2023/05/14 10:12:19;;;;;;;6.88;4.40;;;;;;;19.94;71.72;101775.31;5094956;28;20116;-37
2023/05/14 10:14:48;;;;;;;6.32;4.32;;;;;;;19.93;69.25;101779.19;5094463;28;20027;-38
2023/05/14 10:17:17;;;;;;;6.00;4.15;;;;;;;20.08;70.53;101781.13;5095078;28;20019;-38
2023/05/14 10:19:49;;;;;;;5.40;4.35;;;;;;;20.15;69.19;101770.69;5094230;28;20020;-38
2023/05/14 10:22:20;;;;;;;4.78;3.95;;;;;;;20.26;67.69;101772.38;5095052;28;20023;-38
2023/05/14 10:24:46;;;;;;;4.75;4.22;;;;;;;20.26;67.20;101762.22;5094454;28;20020;-38
2023/05/14 10:27:11;;;;;;;5.43;3.90;;;;;;;20.40;67.01;101767.13;5094973;28;20024;-38
2023/05/14 10:29:37;;;;;;;6.90;4.20;;;;;;;20.41;67.26;101752.31;5094357;28;20455;-38
2023/05/14 10:32:08;;;;;;;5.38;3.65;;;;;;;20.52;65.87;101767.72;5094610;28;20055;-38
2023/05/14 10:34:43;;;;;;;4.25;3.38;;;;;;;20.66;66.90;101762.50;5094262;28;20418;-38
2023/05/14 10:37:14;;;;;;;5.57;3.70;;;;;;;20.65;64.81;101758.13;5094824;28;20401;-38
2023/05/14 10:39:45;;;;;;;4.88;3.90;;;;;;;20.89;66.07;101764.69;5093808;28;20035;-38
2023/05/14 10:42:13;;;;;;;4.55;3.67;;;;;;;20.87;62.29;101766.03;5094275;28;20023;-38
2023/05/14 10:44:47;;;;;;;5.65;3.72;;;;;;;21.04;65.04;101752.81;5093816;28;20413;-38
2023/05/14 10:47:13;;;;;;;5.40;3.63;;;;;;;20.96;62.71;101745.94;5093658;28;20409;-38
2023/05/14 10:49:41;;;;;;;7.45;4.10;;;;;;;21.02;63.06;101746.75;5093858;28;20074;-38
2023/05/14 10:52:08;;;;;;;5.43;3.83;;;;;;;21.05;64.52;101741.53;5093815;28;20020;-38
2023/05/14 10:54:37;;;;;;;4.57;3.47;;;;;;;21.16;62.95;101747.00;5093994;28;20352;-38
2023/05/14 10:57:03;;;;;;;6.20;3.60;;;;;;;21.06;64.10;101739.59;5094054;28;20360;-38
2023/05/14 10:59:28;;;;;;;5.00;3.50;;;;;;;21.15;60.29;101740.66;5093561;28;20046;-38
2023/05/14 11:01:56;;;;;;;5.55;3.80;;;;;;;21.21;63.17;101727.72;5094015;28;20034;-38
2023/05/14 11:04:27;;;;;;;4.13;3.05;;;;;;;21.47;60.83;101731.19;5093625;28;20081;-38
2023/05/14 11:06:52;;;;;;;4.47;3.45;;;;;;;21.54;62.19;101731.75;5093306;28;20030;-38
2023/05/14 11:09:20;;;;;;;4.45;3.20;;;;;;;21.58;58.38;101722.63;5093199;28;20016;-38
2023/05/14 11:11:46;;;;;;;6.28;2.90;;;;;;;21.70;57.52;101732.47;5093582;28;20024;-38
2023/05/14 11:14:12;;;;;;;6.72;2.95;;;;;;;21.81;56.89;101725.78;5092687;28;20061;-37
2023/05/14 11:16:38;;;;;;;3.70;2.75;;;;;;;21.93;57.01;101729.03;5094116;28;20020;-36
2023/05/14 11:19:03;;;;;;;3.30;2.95;;;;;;;21.87;56.88;101713.66;5093471;28;20054;-36
2023/05/14 11:21:32;;;;;;;3.70;3.13;;;;;;;21.99;56.36;101727.88;5093414;28;20402;-36